sensor_id;sensor_type;location;lat;lon;timestamp;P1;durP1;ratioP1;P2;durP2;ratioP2
12884;SDS011;6510;51.362;7.370;2023-09-08T00:01:49;0.10;;;0.10;;
12884;SDS011;6510;51.362;7.370;2023-09-08T00:04:15;0.10;;;0.10;;
12884;SDS011;6510;51.362;7.370;2023-09-08T00:06:41;0.10;;;0.10;;
12884;SDS011;6510;51.362;7.370;2023-09-08T00:09:06;0.10;;;0.10;;
12884;SDS011;6510;51.362;7.370;2023-09-08T00:11:32;0.10;;;0.10;;
12884;SDS011;6510;51.362;7.370;2023-09-08T00:14:01;0.13;;;0.13;;
12884;SDS011;6510;51.362;7.370;2023-09-08T00:16:28;0.10;;;0.10;;
12884;SDS011;6510;51.362;7.370;2023-09-08T00:18:54;0.10;;;0.10;;
12884;SDS011;6510;51.362;7.370;2023-09-08T00:21:20;0.10;;;0.10;;
12884;SDS011;6510;51.362;7.370;2023-09-08T00:23:45;0.10;;;0.10;;
12884;SDS011;6510;51.362;7.370;2023-09-08T00:26:11;0.10;;;0.10;;
12884;SDS011;6510;51.362;7.370;2023-09-08T00:28:37;0.10;;;0.10;;
12884;SDS011;6510;51.362;7.370;2023-09-08T00:31:02;0.10;;;0.10;;
12884;SDS011;6510;51.362;7.370;2023-09-08T00:33:29;0.10;;;0.10;;
12884;SDS011;6510;51.362;7.370;2023-09-08T00:35:55;0.10;;;0.10;;
12884;SDS011;6510;51.362;7.370;2023-09-08T00:38:22;0.10;;;0.10;;
12884;SDS011;6510;51.362;7.370;2023-09-08T00:40:48;0.10;;;0.10;;
12884;SDS011;6510;51.362;7.370;2023-09-08T00:43:14;0.10;;;0.10;;
12884;SDS011;6510;51.362;7.370;2023-09-08T00:45:43;0.03;;;0.03;;
12884;SDS011;6510;51.362;7.370;2023-09-08T00:48:10;0.10;;;0.10;;
12884;SDS011;6510;51.362;7.370;2023-09-08T00:50:36;0.10;;;0.10;;
12884;SDS011;6510;51.362;7.370;2023-09-08T00:53:05;0.10;;;0.10;;
12884;SDS011;6510;51.362;7.370;2023-09-08T00:55:32;0.10;;;0.10;;
12884;SDS011;6510;51.362;7.370;2023-09-08T00:57:58;0.10;;;0.10;;
12884;SDS011;6510;51.362;7.370;2023-09-08T01:00:24;0.10;;;0.10;;
12884;SDS011;6510;51.362;7.370;2023-09-08T01:02:50;0.13;;;0.13;;
12884;SDS011;6510;51.362;7.370;2023-09-08T01:05:16;0.10;;;0.10;;
12884;SDS011;6510;51.362;7.370;2023-09-08T01:07:42;0.00;;;0.00;;
12884;SDS011;6510;51.362;7.370;2023-09-08T01:10:09;0.10;;;0.10;;
12884;SDS011;6510;51.362;7.370;2023-09-08T01:12:35;0.10;;;0.10;;
12884;SDS011;6510;51.362;7.370;2023-09-08T01:15:02;0.10;;;0.10;;
12884;SDS011;6510;51.362;7.370;2023-09-08T01:17:28;0.10;;;0.10;;
12884;SDS011;6510;51.362;7.370;2023-09-08T01:19:54;0.10;;;0.10;;
12884;SDS011;6510;51.362;7.370;2023-09-08T01:27:53;0.10;;;0.10;;
12884;SDS011;6510;51.362;7.370;2023-09-08T01:30:23;0.10;;;0.10;;
12884;SDS011;6510;51.362;7.370;2023-09-08T01:32:51;0.10;;;0.10;;
12884;SDS011;6510;51.362;7.370;2023-09-08T01:35:19;0.10;;;0.10;;
12884;SDS011;6510;51.362;7.370;2023-09-08T01:37:46;0.10;;;0.10;;
12884;SDS011;6510;51.362;7.370;2023-09-08T01:40:12;0.10;;;0.10;;
12884;SDS011;6510;51.362;7.370;2023-09-08T01:42:39;0.10;;;0.10;;
12884;SDS011;6510;51.362;7.370;2023-09-08T01:45:05;0.00;;;0.00;;
12884;SDS011;6510;51.362;7.370;2023-09-08T01:47:31;0.10;;;0.10;;
12884;SDS011;6510;51.362;7.370;2023-09-08T01:49:57;0.10;;;0.10;;
12884;SDS011;6510;51.362;7.370;2023-09-08T01:52:23;0.08;;;0.08;;
12884;SDS011;6510;51.362;7.370;2023-09-08T01:54:49;0.10;;;0.10;;
12884;SDS011;6510;51.362;7.370;2023-09-08T01:57:15;0.10;;;0.10;;
12884;SDS011;6510;51.362;7.370;2023-09-08T01:59:40;0.10;;;0.10;;
12884;SDS011;6510;51.362;7.370;2023-09-08T02:02:06;0.10;;;0.10;;
12884;SDS011;6510;51.362;7.370;2023-09-08T02:04:32;0.05;;;0.05;;
12884;SDS011;6510;51.362;7.370;2023-09-08T02:06:57;0.10;;;0.10;;
12884;SDS011;6510;51.362;7.370;2023-09-08T02:09:30;0.10;;;0.10;;
12884;SDS011;6510;51.362;7.370;2023-09-08T02:12:00;0.10;;;0.10;;
12884;SDS011;6510;51.362;7.370;2023-09-08T02:14:26;0.10;;;0.10;;
12884;SDS011;6510;51.362;7.370;2023-09-08T02:16:52;0.03;;;0.03;;
12884;SDS011;6510;51.362;7.370;2023-09-08T02:19:18;0.10;;;0.10;;
12884;SDS011;6510;51.362;7.370;2023-09-08T02:21:44;0.10;;;0.10;;
12884;SDS011;6510;51.362;7.370;2023-09-08T02:24:10;0.05;;;0.05;;
12884;SDS011;6510;51.362;7.370;2023-09-08T02:26:35;0.00;;;0.00;;
12884;SDS011;6510;51.362;7.370;2023-09-08T02:29:01;0.00;;;0.00;;
12884;SDS011;6510;51.362;7.370;2023-09-08T02:31:27;0.00;;;0.00;;
12884;SDS011;6510;51.362;7.370;2023-09-08T02:33:53;0.10;;;0.10;;
12884;SDS011;6510;51.362;7.370;2023-09-08T02:36:18;0.00;;;0.00;;
12884;SDS011;6510;51.362;7.370;2023-09-08T02:38:50;0.00;;;0.00;;
12884;SDS011;6510;51.362;7.370;2023-09-08T02:41:16;0.10;;;0.10;;
12884;SDS011;6510;51.362;7.370;2023-09-08T02:43:42;0.10;;;0.10;;
12884;SDS011;6510;51.362;7.370;2023-09-08T02:46:07;0.10;;;0.10;;
12884;SDS011;6510;51.362;7.370;2023-09-08T02:48:34;0.10;;;0.10;;
12884;SDS011;6510;51.362;7.370;2023-09-08T02:51:00;0.00;;;0.00;;
12884;SDS011;6510;51.362;7.370;2023-09-08T02:53:25;0.00;;;0.00;;
12884;SDS011;6510;51.362;7.370;2023-09-08T02:55:54;0.10;;;0.10;;
12884;SDS011;6510;51.362;7.370;2023-09-08T02:58:20;0.10;;;0.10;;
12884;SDS011;6510;51.362;7.370;2023-09-08T03:00:45;0.08;;;0.08;;
12884;SDS011;6510;51.362;7.370;2023-09-08T03:03:11;0.00;;;0.00;;
12884;SDS011;6510;51.362;7.370;2023-09-08T03:05:37;0.10;;;0.10;;
12884;SDS011;6510;51.362;7.370;2023-09-08T03:08:02;0.00;;;0.00;;
12884;SDS011;6510;51.362;7.370;2023-09-08T03:10:30;0.00;;;0.00;;
12884;SDS011;6510;51.362;7.370;2023-09-08T03:12:59;0.00;;;0.00;;
12884;SDS011;6510;51.362;7.370;2023-09-08T03:15:28;0.00;;;0.00;;
12884;SDS011;6510;51.362;7.370;2023-09-08T03:17:54;0.10;;;0.10;;
12884;SDS011;6510;51.362;7.370;2023-09-08T03:20:20;0.00;;;0.00;;
12884;SDS011;6510;51.362;7.370;2023-09-08T03:22:46;0.03;;;0.03;;
12884;SDS011;6510;51.362;7.370;2023-09-08T03:25:13;0.05;;;0.05;;
12884;SDS011;6510;51.362;7.370;2023-09-08T03:27:39;0.00;;;0.00;;
12884;SDS011;6510;51.362;7.370;2023-09-08T03:30:05;0.00;;;0.00;;
12884;SDS011;6510;51.362;7.370;2023-09-08T03:32:31;0.00;;;0.00;;
12884;SDS011;6510;51.362;7.370;2023-09-08T03:34:57;0.10;;;0.10;;
12884;SDS011;6510;51.362;7.370;2023-09-08T03:37:22;0.00;;;0.00;;
12884;SDS011;6510;51.362;7.370;2023-09-08T03:39:48;0.10;;;0.10;;
12884;SDS011;6510;51.362;7.370;2023-09-08T03:42:14;0.10;;;0.10;;
12884;SDS011;6510;51.362;7.370;2023-09-08T03:44:40;0.10;;;0.10;;
12884;SDS011;6510;51.362;7.370;2023-09-08T03:47:05;0.00;;;0.00;;
12884;SDS011;6510;51.362;7.370;2023-09-08T03:49:31;0.05;;;0.05;;
12884;SDS011;6510;51.362;7.370;2023-09-08T03:51:58;0.00;;;0.00;;
12884;SDS011;6510;51.362;7.370;2023-09-08T03:54:23;0.10;;;0.10;;
12884;SDS011;6510;51.362;7.370;2023-09-08T03:56:49;0.17;;;0.17;;
12884;SDS011;6510;51.362;7.370;2023-09-08T03:59:15;0.08;;;0.08;;
12884;SDS011;6510;51.362;7.370;2023-09-08T04:01:40;0.10;;;0.10;;
12884;SDS011;6510;51.362;7.370;2023-09-08T04:04:06;0.10;;;0.10;;
12884;SDS011;6510;51.362;7.370;2023-09-08T04:06:32;0.05;;;0.05;;
12884;SDS011;6510;51.362;7.370;2023-09-08T04:08:57;0.10;;;0.10;;
12884;SDS011;6510;51.362;7.370;2023-09-08T04:11:23;0.00;;;0.00;;
12884;SDS011;6510;51.362;7.370;2023-09-08T04:13:49;0.00;;;0.00;;
12884;SDS011;6510;51.362;7.370;2023-09-08T04:16:14;0.10;;;0.10;;
12884;SDS011;6510;51.362;7.370;2023-09-08T04:18:40;0.00;;;0.00;;
12884;SDS011;6510;51.362;7.370;2023-09-08T04:21:06;0.00;;;0.00;;
12884;SDS011;6510;51.362;7.370;2023-09-08T04:23:32;0.10;;;0.10;;
12884;SDS011;6510;51.362;7.370;2023-09-08T04:25:58;0.10;;;0.10;;
12884;SDS011;6510;51.362;7.370;2023-09-08T04:28:24;0.00;;;0.00;;
12884;SDS011;6510;51.362;7.370;2023-09-08T04:30:49;0.00;;;0.00;;
12884;SDS011;6510;51.362;7.370;2023-09-08T04:33:15;0.00;;;0.00;;
12884;SDS011;6510;51.362;7.370;2023-09-08T04:35:40;0.00;;;0.00;;
12884;SDS011;6510;51.362;7.370;2023-09-08T04:38:06;0.07;;;0.07;;
12884;SDS011;6510;51.362;7.370;2023-09-08T04:40:32;0.10;;;0.10;;
12884;SDS011;6510;51.362;7.370;2023-09-08T04:42:58;0.00;;;0.00;;
12884;SDS011;6510;51.362;7.370;2023-09-08T04:45:24;0.00;;;0.00;;
12884;SDS011;6510;51.362;7.370;2023-09-08T04:47:49;0.10;;;0.10;;
12884;SDS011;6510;51.362;7.370;2023-09-08T04:50:15;0.10;;;0.10;;
12884;SDS011;6510;51.362;7.370;2023-09-08T04:52:44;0.00;;;0.00;;
12884;SDS011;6510;51.362;7.370;2023-09-08T04:55:09;0.00;;;0.00;;
12884;SDS011;6510;51.362;7.370;2023-09-08T04:57:36;0.00;;;0.00;;
12884;SDS011;6510;51.362;7.370;2023-09-08T05:00:01;0.00;;;0.00;;
12884;SDS011;6510;51.362;7.370;2023-09-08T05:02:27;0.00;;;0.00;;
12884;SDS011;6510;51.362;7.370;2023-09-08T05:04:53;0.00;;;0.00;;
12884;SDS011;6510;51.362;7.370;2023-09-08T05:07:19;0.00;;;0.00;;
12884;SDS011;6510;51.362;7.370;2023-09-08T05:09:44;0.00;;;0.00;;
12884;SDS011;6510;51.362;7.370;2023-09-08T05:12:10;0.00;;;0.00;;
12884;SDS011;6510;51.362;7.370;2023-09-08T05:14:36;0.00;;;0.00;;
12884;SDS011;6510;51.362;7.370;2023-09-08T05:17:02;0.00;;;0.00;;
12884;SDS011;6510;51.362;7.370;2023-09-08T05:19:27;0.10;;;0.10;;
12884;SDS011;6510;51.362;7.370;2023-09-08T05:21:53;0.10;;;0.10;;
12884;SDS011;6510;51.362;7.370;2023-09-08T05:24:20;0.10;;;0.10;;
12884;SDS011;6510;51.362;7.370;2023-09-08T05:26:46;0.00;;;0.00;;
12884;SDS011;6510;51.362;7.370;2023-09-08T05:29:14;0.10;;;0.10;;
12884;SDS011;6510;51.362;7.370;2023-09-08T05:31:40;0.10;;;0.10;;
12884;SDS011;6510;51.362;7.370;2023-09-08T05:34:06;0.10;;;0.10;;
12884;SDS011;6510;51.362;7.370;2023-09-08T05:36:31;0.10;;;0.10;;
12884;SDS011;6510;51.362;7.370;2023-09-08T05:38:59;0.10;;;0.10;;
12884;SDS011;6510;51.362;7.370;2023-09-08T05:41:25;0.10;;;0.10;;
12884;SDS011;6510;51.362;7.370;2023-09-08T05:43:50;0.10;;;0.10;;
12884;SDS011;6510;51.362;7.370;2023-09-08T05:46:16;0.10;;;0.10;;
12884;SDS011;6510;51.362;7.370;2023-09-08T05:48:43;0.00;;;0.00;;
12884;SDS011;6510;51.362;7.370;2023-09-08T05:51:08;0.10;;;0.10;;
12884;SDS011;6510;51.362;7.370;2023-09-08T05:53:34;0.10;;;0.10;;
12884;SDS011;6510;51.362;7.370;2023-09-08T05:56:00;0.10;;;0.10;;
12884;SDS011;6510;51.362;7.370;2023-09-08T05:58:26;0.10;;;0.10;;
12884;SDS011;6510;51.362;7.370;2023-09-08T06:00:52;0.10;;;0.10;;
12884;SDS011;6510;51.362;7.370;2023-09-08T06:03:19;0.10;;;0.10;;
12884;SDS011;6510;51.362;7.370;2023-09-08T06:05:44;0.00;;;0.00;;
12884;SDS011;6510;51.362;7.370;2023-09-08T06:08:10;0.10;;;0.10;;
12884;SDS011;6510;51.362;7.370;2023-09-08T06:10:37;0.00;;;0.00;;
12884;SDS011;6510;51.362;7.370;2023-09-08T06:13:03;0.10;;;0.10;;
12884;SDS011;6510;51.362;7.370;2023-09-08T06:15:29;0.08;;;0.08;;
12884;SDS011;6510;51.362;7.370;2023-09-08T06:17:55;0.10;;;0.10;;
12884;SDS011;6510;51.362;7.370;2023-09-08T06:20:21;0.10;;;0.10;;
12884;SDS011;6510;51.362;7.370;2023-09-08T06:22:46;0.10;;;0.10;;
12884;SDS011;6510;51.362;7.370;2023-09-08T06:25:12;0.10;;;0.10;;
12884;SDS011;6510;51.362;7.370;2023-09-08T06:27:38;0.10;;;0.10;;
12884;SDS011;6510;51.362;7.370;2023-09-08T06:30:04;0.10;;;0.10;;
12884;SDS011;6510;51.362;7.370;2023-09-08T06:32:30;0.00;;;0.00;;
12884;SDS011;6510;51.362;7.370;2023-09-08T06:34:56;0.10;;;0.10;;
12884;SDS011;6510;51.362;7.370;2023-09-08T06:37:21;0.10;;;0.10;;
12884;SDS011;6510;51.362;7.370;2023-09-08T06:39:47;0.20;;;0.20;;
12884;SDS011;6510;51.362;7.370;2023-09-08T06:42:13;0.10;;;0.10;;
12884;SDS011;6510;51.362;7.370;2023-09-08T06:44:38;0.10;;;0.10;;
12884;SDS011;6510;51.362;7.370;2023-09-08T06:47:06;0.10;;;0.10;;
12884;SDS011;6510;51.362;7.370;2023-09-08T06:49:32;0.20;;;0.20;;
12884;SDS011;6510;51.362;7.370;2023-09-08T06:51:58;0.10;;;0.10;;
12884;SDS011;6510;51.362;7.370;2023-09-08T06:54:24;0.20;;;0.20;;
12884;SDS011;6510;51.362;7.370;2023-09-08T06:56:49;0.20;;;0.20;;
12884;SDS011;6510;51.362;7.370;2023-09-08T06:59:15;0.10;;;0.10;;
12884;SDS011;6510;51.362;7.370;2023-09-08T07:01:42;0.10;;;0.10;;
12884;SDS011;6510;51.362;7.370;2023-09-08T07:04:08;0.10;;;0.10;;
12884;SDS011;6510;51.362;7.370;2023-09-08T07:06:33;0.10;;;0.10;;
12884;SDS011;6510;51.362;7.370;2023-09-08T07:09:00;0.10;;;0.10;;
12884;SDS011;6510;51.362;7.370;2023-09-08T07:11:26;0.20;;;0.20;;
12884;SDS011;6510;51.362;7.370;2023-09-08T07:13:52;0.20;;;0.20;;
12884;SDS011;6510;51.362;7.370;2023-09-08T07:16:17;0.22;;;0.22;;
12884;SDS011;6510;51.362;7.370;2023-09-08T07:18:43;0.30;;;0.30;;
12884;SDS011;6510;51.362;7.370;2023-09-08T07:21:09;0.30;;;0.30;;
12884;SDS011;6510;51.362;7.370;2023-09-08T07:23:34;0.40;;;0.40;;
12884;SDS011;6510;51.362;7.370;2023-09-08T07:26:01;0.40;;;0.40;;
12884;SDS011;6510;51.362;7.370;2023-09-08T07:28:27;0.40;;;0.40;;
12884;SDS011;6510;51.362;7.370;2023-09-08T07:30:53;0.50;;;0.50;;
12884;SDS011;6510;51.362;7.370;2023-09-08T07:33:18;0.47;;;0.47;;
12884;SDS011;6510;51.362;7.370;2023-09-08T07:35:44;0.73;;;0.73;;
12884;SDS011;6510;51.362;7.370;2023-09-08T07:38:10;0.63;;;0.63;;
12884;SDS011;6510;51.362;7.370;2023-09-08T07:40:35;0.70;;;0.70;;
12884;SDS011;6510;51.362;7.370;2023-09-08T07:43:01;0.68;;;0.68;;
12884;SDS011;6510;51.362;7.370;2023-09-08T07:45:27;0.63;;;0.63;;
12884;SDS011;6510;51.362;7.370;2023-09-08T07:47:53;0.50;;;0.50;;
12884;SDS011;6510;51.362;7.370;2023-09-08T07:50:23;0.70;;;0.70;;
12884;SDS011;6510;51.362;7.370;2023-09-08T07:52:50;0.80;;;0.80;;
12884;SDS011;6510;51.362;7.370;2023-09-08T07:55:17;0.55;;;0.55;;
12884;SDS011;6510;51.362;7.370;2023-09-08T07:57:44;0.70;;;0.70;;
12884;SDS011;6510;51.362;7.370;2023-09-08T08:00:11;0.73;;;0.73;;
12884;SDS011;6510;51.362;7.370;2023-09-08T08:02:38;0.52;;;0.52;;
12884;SDS011;6510;51.362;7.370;2023-09-08T08:05:22;0.80;;;0.80;;
12884;SDS011;6510;51.362;7.370;2023-09-08T08:07:48;0.55;;;0.55;;
12884;SDS011;6510;51.362;7.370;2023-09-08T08:10:14;0.65;;;0.65;;
12884;SDS011;6510;51.362;7.370;2023-09-08T08:12:40;0.68;;;0.68;;
12884;SDS011;6510;51.362;7.370;2023-09-08T08:15:07;0.70;;;0.70;;
12884;SDS011;6510;51.362;7.370;2023-09-08T08:17:37;0.60;;;0.60;;
12884;SDS011;6510;51.362;7.370;2023-09-08T08:20:04;0.60;;;0.60;;
12884;SDS011;6510;51.362;7.370;2023-09-08T08:22:32;0.60;;;0.60;;
12884;SDS011;6510;51.362;7.370;2023-09-08T08:24:58;0.57;;;0.57;;
12884;SDS011;6510;51.362;7.370;2023-09-08T08:27:24;0.60;;;0.60;;
12884;SDS011;6510;51.362;7.370;2023-09-08T08:29:50;0.75;;;0.75;;
12884;SDS011;6510;51.362;7.370;2023-09-08T08:32:16;0.70;;;0.70;;
12884;SDS011;6510;51.362;7.370;2023-09-08T08:34:42;0.80;;;0.80;;
12884;SDS011;6510;51.362;7.370;2023-09-08T08:37:07;0.80;;;0.80;;
12884;SDS011;6510;51.362;7.370;2023-09-08T08:39:33;0.68;;;0.68;;
12884;SDS011;6510;51.362;7.370;2023-09-08T08:42:05;0.80;;;0.80;;
12884;SDS011;6510;51.362;7.370;2023-09-08T08:44:32;0.90;;;0.90;;
12884;SDS011;6510;51.362;7.370;2023-09-08T08:46:58;0.65;;;0.65;;
12884;SDS011;6510;51.362;7.370;2023-09-08T08:49:27;0.80;;;0.80;;
12884;SDS011;6510;51.362;7.370;2023-09-08T08:51:53;0.80;;;0.80;;
12884;SDS011;6510;51.362;7.370;2023-09-08T08:54:21;0.50;;;0.50;;
12884;SDS011;6510;51.362;7.370;2023-09-08T08:56:47;0.80;;;0.80;;
12884;SDS011;6510;51.362;7.370;2023-09-08T08:59:13;0.70;;;0.70;;
12884;SDS011;6510;51.362;7.370;2023-09-08T09:01:41;0.70;;;0.70;;
12884;SDS011;6510;51.362;7.370;2023-09-08T09:04:07;0.77;;;0.77;;
12884;SDS011;6510;51.362;7.370;2023-09-08T09:06:36;0.60;;;0.60;;
12884;SDS011;6510;51.362;7.370;2023-09-08T09:09:02;0.90;;;0.90;;
12884;SDS011;6510;51.362;7.370;2023-09-08T09:11:30;0.68;;;0.68;;
12884;SDS011;6510;51.362;7.370;2023-09-08T09:13:57;0.77;;;0.77;;
12884;SDS011;6510;51.362;7.370;2023-09-08T09:16:25;0.88;;;0.88;;
12884;SDS011;6510;51.362;7.370;2023-09-08T09:21:23;0.80;;;0.80;;
12884;SDS011;6510;51.362;7.370;2023-09-08T09:23:50;0.77;;;0.77;;
12884;SDS011;6510;51.362;7.370;2023-09-08T09:26:23;0.73;;;0.73;;
12884;SDS011;6510;51.362;7.370;2023-09-08T09:28:50;0.60;;;0.60;;
12884;SDS011;6510;51.362;7.370;2023-09-08T09:31:17;0.55;;;0.55;;
12884;SDS011;6510;51.362;7.370;2023-09-08T09:33:43;0.77;;;0.77;;
12884;SDS011;6510;51.362;7.370;2023-09-08T09:36:10;0.73;;;0.73;;
12884;SDS011;6510;51.362;7.370;2023-09-08T09:38:46;0.90;;;0.90;;
12884;SDS011;6510;51.362;7.370;2023-09-08T09:41:12;0.82;;;0.82;;
12884;SDS011;6510;51.362;7.370;2023-09-08T09:43:38;1.00;;;1.00;;
12884;SDS011;6510;51.362;7.370;2023-09-08T09:46:06;0.70;;;0.70;;
12884;SDS011;6510;51.362;7.370;2023-09-08T09:48:33;0.80;;;0.80;;
12884;SDS011;6510;51.362;7.370;2023-09-08T09:51:00;0.80;;;0.80;;
12884;SDS011;6510;51.362;7.370;2023-09-08T09:53:46;0.82;;;0.82;;
12884;SDS011;6510;51.362;7.370;2023-09-08T09:56:13;0.73;;;0.73;;
12884;SDS011;6510;51.362;7.370;2023-09-08T09:58:39;0.77;;;0.77;;
12884;SDS011;6510;51.362;7.370;2023-09-08T10:01:07;0.57;;;0.57;;
12884;SDS011;6510;51.362;7.370;2023-09-08T10:03:36;0.65;;;0.65;;
12884;SDS011;6510;51.362;7.370;2023-09-08T10:06:04;0.98;;;0.98;;
12884;SDS011;6510;51.362;7.370;2023-09-08T10:08:30;0.73;;;0.73;;
12884;SDS011;6510;51.362;7.370;2023-09-08T10:10:59;0.52;;;0.52;;
12884;SDS011;6510;51.362;7.370;2023-09-08T10:13:27;0.85;;;0.85;;
12884;SDS011;6510;51.362;7.370;2023-09-08T10:15:57;0.82;;;0.82;;
12884;SDS011;6510;51.362;7.370;2023-09-08T10:18:23;0.85;;;0.85;;
12884;SDS011;6510;51.362;7.370;2023-09-08T10:20:51;0.70;;;0.70;;
12884;SDS011;6510;51.362;7.370;2023-09-08T10:23:29;0.70;;;0.70;;
12884;SDS011;6510;51.362;7.370;2023-09-08T10:26:20;0.60;;;0.60;;
12884;SDS011;6510;51.362;7.370;2023-09-08T10:28:49;0.82;;;0.82;;
12884;SDS011;6510;51.362;7.370;2023-09-08T10:31:16;0.70;;;0.70;;
12884;SDS011;6510;51.362;7.370;2023-09-08T10:33:42;0.90;;;0.90;;
12884;SDS011;6510;51.362;7.370;2023-09-08T10:36:09;0.70;;;0.70;;
12884;SDS011;6510;51.362;7.370;2023-09-08T10:38:35;0.65;;;0.65;;
12884;SDS011;6510;51.362;7.370;2023-09-08T10:43:44;0.70;;;0.70;;
12884;SDS011;6510;51.362;7.370;2023-09-08T10:46:26;0.65;;;0.65;;
12884;SDS011;6510;51.362;7.370;2023-09-08T10:48:53;0.60;;;0.60;;
12884;SDS011;6510;51.362;7.370;2023-09-08T10:51:20;0.50;;;0.50;;
12884;SDS011;6510;51.362;7.370;2023-09-08T10:53:48;0.80;;;0.80;;
12884;SDS011;6510;51.362;7.370;2023-09-08T10:56:14;0.70;;;0.70;;
12884;SDS011;6510;51.362;7.370;2023-09-08T10:58:41;0.80;;;0.80;;
12884;SDS011;6510;51.362;7.370;2023-09-08T11:01:18;0.88;;;0.88;;
12884;SDS011;6510;51.362;7.370;2023-09-08T11:03:47;0.73;;;0.73;;
12884;SDS011;6510;51.362;7.370;2023-09-08T11:06:16;0.88;;;0.88;;
12884;SDS011;6510;51.362;7.370;2023-09-08T11:08:47;0.68;;;0.68;;
12884;SDS011;6510;51.362;7.370;2023-09-08T11:11:14;0.60;;;0.60;;
12884;SDS011;6510;51.362;7.370;2023-09-08T11:13:41;0.80;;;0.80;;
12884;SDS011;6510;51.362;7.370;2023-09-08T11:16:10;0.60;;;0.60;;
12884;SDS011;6510;51.362;7.370;2023-09-08T11:18:36;0.80;;;0.80;;
12884;SDS011;6510;51.362;7.370;2023-09-08T11:21:02;0.60;;;0.60;;
12884;SDS011;6510;51.362;7.370;2023-09-08T11:23:32;0.70;;;0.70;;
12884;SDS011;6510;51.362;7.370;2023-09-08T11:25:58;0.60;;;0.60;;
12884;SDS011;6510;51.362;7.370;2023-09-08T11:28:25;0.82;;;0.82;;
12884;SDS011;6510;51.362;7.370;2023-09-08T11:30:52;0.80;;;0.80;;
12884;SDS011;6510;51.362;7.370;2023-09-08T11:33:20;0.80;;;0.80;;
12884;SDS011;6510;51.362;7.370;2023-09-08T11:35:50;0.80;;;0.80;;
12884;SDS011;6510;51.362;7.370;2023-09-08T11:38:27;0.75;;;0.75;;
12884;SDS011;6510;51.362;7.370;2023-09-08T11:40:53;0.98;;;0.98;;
12884;SDS011;6510;51.362;7.370;2023-09-08T11:43:22;1.00;;;1.00;;
12884;SDS011;6510;51.362;7.370;2023-09-08T11:45:48;0.93;;;0.93;;
12884;SDS011;6510;51.362;7.370;2023-09-08T11:48:14;0.98;;;0.98;;
12884;SDS011;6510;51.362;7.370;2023-09-08T11:50:41;0.82;;;0.82;;
12884;SDS011;6510;51.362;7.370;2023-09-08T11:53:07;0.90;;;0.90;;
12884;SDS011;6510;51.362;7.370;2023-09-08T11:55:34;0.90;;;0.90;;
12884;SDS011;6510;51.362;7.370;2023-09-08T11:58:02;0.80;;;0.80;;
12884;SDS011;6510;51.362;7.370;2023-09-08T12:00:28;0.80;;;0.80;;
12884;SDS011;6510;51.362;7.370;2023-09-08T12:02:55;0.90;;;0.90;;
12884;SDS011;6510;51.362;7.370;2023-09-08T12:05:24;0.73;;;0.73;;
12884;SDS011;6510;51.362;7.370;2023-09-08T12:07:51;0.70;;;0.70;;
12884;SDS011;6510;51.362;7.370;2023-09-08T12:10:18;0.70;;;0.70;;
12884;SDS011;6510;51.362;7.370;2023-09-08T12:12:51;0.73;;;0.73;;
12884;SDS011;6510;51.362;7.370;2023-09-08T12:15:32;0.80;;;0.80;;
12884;SDS011;6510;51.362;7.370;2023-09-08T12:17:59;0.80;;;0.80;;
12884;SDS011;6510;51.362;7.370;2023-09-08T12:20:30;0.80;;;0.80;;
12884;SDS011;6510;51.362;7.370;2023-09-08T12:22:57;0.73;;;0.73;;
12884;SDS011;6510;51.362;7.370;2023-09-08T12:25:28;0.80;;;0.80;;
12884;SDS011;6510;51.362;7.370;2023-09-08T12:27:56;0.93;;;0.93;;
12884;SDS011;6510;51.362;7.370;2023-09-08T12:30:22;0.80;;;0.80;;
12884;SDS011;6510;51.362;7.370;2023-09-08T12:32:55;0.90;;;0.90;;
12884;SDS011;6510;51.362;7.370;2023-09-08T12:35:22;0.90;;;0.90;;
12884;SDS011;6510;51.362;7.370;2023-09-08T12:38:06;0.90;;;0.90;;
12884;SDS011;6510;51.362;7.370;2023-09-08T12:40:36;0.82;;;0.82;;
12884;SDS011;6510;51.362;7.370;2023-09-08T12:43:03;0.70;;;0.70;;
12884;SDS011;6510;51.362;7.370;2023-09-08T12:45:29;0.80;;;0.80;;
12884;SDS011;6510;51.362;7.370;2023-09-08T12:47:57;0.75;;;0.75;;
12884;SDS011;6510;51.362;7.370;2023-09-08T12:50:32;0.70;;;0.70;;
12884;SDS011;6510;51.362;7.370;2023-09-08T12:52:58;0.70;;;0.70;;
12884;SDS011;6510;51.362;7.370;2023-09-08T12:55:23;0.82;;;0.82;;
12884;SDS011;6510;51.362;7.370;2023-09-08T12:57:49;0.70;;;0.70;;
12884;SDS011;6510;51.362;7.370;2023-09-08T13:00:19;0.90;;;0.90;;
12884;SDS011;6510;51.362;7.370;2023-09-08T13:02:45;0.90;;;0.90;;
12884;SDS011;6510;51.362;7.370;2023-09-08T13:05:11;0.80;;;0.80;;
12884;SDS011;6510;51.362;7.370;2023-09-08T13:07:36;0.80;;;0.80;;
12884;SDS011;6510;51.362;7.370;2023-09-08T13:10:02;0.88;;;0.88;;
12884;SDS011;6510;51.362;7.370;2023-09-08T13:12:28;0.85;;;0.85;;
12884;SDS011;6510;51.362;7.370;2023-09-08T13:14:54;0.80;;;0.80;;
12884;SDS011;6510;51.362;7.370;2023-09-08T13:17:19;0.85;;;0.85;;
12884;SDS011;6510;51.362;7.370;2023-09-08T13:19:45;0.90;;;0.90;;
12884;SDS011;6510;51.362;7.370;2023-09-08T13:22:11;0.80;;;0.80;;
12884;SDS011;6510;51.362;7.370;2023-09-08T13:24:37;0.80;;;0.80;;
12884;SDS011;6510;51.362;7.370;2023-09-08T13:27:03;0.82;;;0.82;;
12884;SDS011;6510;51.362;7.370;2023-09-08T13:29:28;0.77;;;0.77;;
12884;SDS011;6510;51.362;7.370;2023-09-08T13:31:55;0.80;;;0.80;;
12884;SDS011;6510;51.362;7.370;2023-09-08T13:34:24;0.80;;;0.80;;
12884;SDS011;6510;51.362;7.370;2023-09-08T13:36:50;0.80;;;0.80;;
12884;SDS011;6510;51.362;7.370;2023-09-08T13:39:15;0.70;;;0.70;;
12884;SDS011;6510;51.362;7.370;2023-09-08T13:41:51;0.70;;;0.70;;
12884;SDS011;6510;51.362;7.370;2023-09-08T13:44:21;0.70;;;0.70;;
12884;SDS011;6510;51.362;7.370;2023-09-08T13:46:48;0.80;;;0.80;;
12884;SDS011;6510;51.362;7.370;2023-09-08T13:49:15;0.73;;;0.73;;
12884;SDS011;6510;51.362;7.370;2023-09-08T13:51:40;0.73;;;0.73;;
12884;SDS011;6510;51.362;7.370;2023-09-08T13:54:07;0.52;;;0.52;;
12884;SDS011;6510;51.362;7.370;2023-09-08T13:56:33;0.80;;;0.80;;
12884;SDS011;6510;51.362;7.370;2023-09-08T13:58:59;0.88;;;0.88;;
12884;SDS011;6510;51.362;7.370;2023-09-08T14:01:28;0.80;;;0.80;;
12884;SDS011;6510;51.362;7.370;2023-09-08T14:03:54;0.80;;;0.80;;
12884;SDS011;6510;51.362;7.370;2023-09-08T14:06:21;0.50;;;0.50;;
12884;SDS011;6510;51.362;7.370;2023-09-08T14:08:48;0.70;;;0.70;;
12884;SDS011;6510;51.362;7.370;2023-09-08T14:11:14;0.80;;;0.80;;
12884;SDS011;6510;51.362;7.370;2023-09-08T14:13:40;0.60;;;0.60;;
12884;SDS011;6510;51.362;7.370;2023-09-08T14:16:05;0.70;;;0.70;;
12884;SDS011;6510;51.362;7.370;2023-09-08T14:18:31;0.70;;;0.70;;
12884;SDS011;6510;51.362;7.370;2023-09-08T14:20:57;0.70;;;0.70;;
12884;SDS011;6510;51.362;7.370;2023-09-08T14:23:22;0.70;;;0.70;;
12884;SDS011;6510;51.362;7.370;2023-09-08T14:25:48;0.70;;;0.70;;
12884;SDS011;6510;51.362;7.370;2023-09-08T14:28:16;0.60;;;0.60;;
12884;SDS011;6510;51.362;7.370;2023-09-08T14:30:41;0.68;;;0.68;;
12884;SDS011;6510;51.362;7.370;2023-09-08T14:33:07;0.60;;;0.60;;
12884;SDS011;6510;51.362;7.370;2023-09-08T14:35:35;0.60;;;0.60;;
12884;SDS011;6510;51.362;7.370;2023-09-08T14:38:00;0.65;;;0.65;;
12884;SDS011;6510;51.362;7.370;2023-09-08T14:40:26;0.50;;;0.50;;
12884;SDS011;6510;51.362;7.370;2023-09-08T14:42:52;0.50;;;0.50;;
12884;SDS011;6510;51.362;7.370;2023-09-08T14:45:17;0.60;;;0.60;;
12884;SDS011;6510;51.362;7.370;2023-09-08T14:47:43;0.50;;;0.50;;
12884;SDS011;6510;51.362;7.370;2023-09-08T14:50:08;0.50;;;0.50;;
12884;SDS011;6510;51.362;7.370;2023-09-08T14:52:34;0.50;;;0.50;;
12884;SDS011;6510;51.362;7.370;2023-09-08T14:55:00;0.50;;;0.50;;
12884;SDS011;6510;51.362;7.370;2023-09-08T14:57:25;0.50;;;0.50;;
12884;SDS011;6510;51.362;7.370;2023-09-08T14:59:51;0.45;;;0.45;;
12884;SDS011;6510;51.362;7.370;2023-09-08T15:02:20;0.40;;;0.40;;
12884;SDS011;6510;51.362;7.370;2023-09-08T15:04:46;0.47;;;0.47;;
12884;SDS011;6510;51.362;7.370;2023-09-08T15:07:12;0.57;;;0.57;;
12884;SDS011;6510;51.362;7.370;2023-09-08T15:09:37;0.30;;;0.30;;